Portada
METAR-TAF:

METAR-TAF

Aeropuertos :

Pau, Francia

Aeropuerto de Pau-Pirineos

latitud: 43-23N, longitud: 000-25W, altitud: 188 m

Observación

El informe se hizo hace 26 minutos, a las 18:00 UTC
Viento 3 kt del noroeste
Temperatura 22°C
Humedad 60%
Presión 1017 hPa
Visibilidad 10 km o más
sin nubes por debajo de 1500 m y sin presencia de cumulonimbus.

METAR: LFBP 231800Z AUTO 32003KT CAVOK 22/14 Q1017 NOSIG

Hora: 20:26 (18:26 UTC)

Pronóstico

El informe se hizo hace 1 hora y 26 minutos, a las 17:00 UTC
Pronóstico válido del 23 a las 18 UTC al 24 a las 18 UTC
Viento 3 kt con dirección variable
Visibilidad 10 km o más
sin nubes por debajo de 1500 m y sin presencia de cumulonimbus.
Probabilidad 30% :
Temporalmente
del 24 a las 00 UTC al 24 a las 08 UTC
Visibilidad: 3000 m
Cielo nuboso a una altura de 500 ft
neblina

TAF: LFBP 231700Z 2318/2418 VRB03KT CAVOK PROB30 TEMPO 2400/2408 3000 BR BKN005

Observaciones y pronósticos meteorológicos de más de 4000 aeropuertos (mensajes METAR y TAF).

Los puntos amarillos y rojos representan las estaciones disponibles.

Ponga el ratón en el punto deseado para ver el nombre de la estación.

Haga clic para ver las observaciones y los pronósticos meteorológicos.

Para cambiar el mapa : haga clic en los botones verdes con una cruz de color negro para hacer un zoom, en el botón verde con un guión para alejar o en las flechas verdes para mapas adyacentes.


METAR-TAF: